createdAt,value
2023-05-22T00:00:16.574Z,16.80
2023-05-22T00:02:44.828Z,17.00
2023-05-22T00:05:14.598Z,16.90
2023-05-22T00:07:43.289Z,16.90
2023-05-22T00:10:12.236Z,16.90
2023-05-22T00:12:41.662Z,16.90
2023-05-22T00:15:11.403Z,17.00
2023-05-22T00:17:39.443Z,16.90
2023-05-22T00:20:11.012Z,17.00
2023-05-22T00:22:39.211Z,17.00
2023-05-22T00:25:08.509Z,16.90
2023-05-22T00:27:36.534Z,16.90
2023-05-22T00:30:08.419Z,17.00
2023-05-22T00:32:36.921Z,17.00
2023-05-22T00:35:05.248Z,16.90
2023-05-22T00:37:33.289Z,17.00
2023-05-22T00:40:01.286Z,17.00
2023-05-22T00:42:29.667Z,17.00
2023-05-22T00:44:57.646Z,17.10
2023-05-22T00:47:27.206Z,17.00
2023-05-22T00:49:55.654Z,16.90
2023-05-22T00:52:23.859Z,16.90
2023-05-22T00:54:54.710Z,16.80
2023-05-22T00:57:24.521Z,16.80
2023-05-22T00:59:53.019Z,16.70
2023-05-22T01:02:21.845Z,16.80
2023-05-22T01:04:51.188Z,16.80
2023-05-22T01:07:19.215Z,16.80
2023-05-22T01:09:47.237Z,16.80
2023-05-22T01:12:23.924Z,16.80
2023-05-22T01:15:00.386Z,16.90
2023-05-22T01:17:38.125Z,16.70
2023-05-22T01:20:17.663Z,16.80
2023-05-22T01:23:18.123Z,16.80
2023-05-22T01:26:29.072Z,16.80
2023-05-22T01:29:18.636Z,16.80
2023-05-22T01:31:51.369Z,16.80
2023-05-22T01:34:20.680Z,16.80
2023-05-22T01:36:49.742Z,16.80
2023-05-22T01:39:19.082Z,16.80
2023-05-22T01:41:47.088Z,16.80
2023-05-22T01:44:15.752Z,16.80
2023-05-22T01:46:43.669Z,16.90
2023-05-22T01:49:12.959Z,16.80
2023-05-22T01:51:49.590Z,16.90
2023-05-22T01:54:24.043Z,16.90
2023-05-22T01:56:56.927Z,16.80
2023-05-22T01:59:31.935Z,16.80
2023-05-22T02:02:05.843Z,16.80
2023-05-22T02:04:39.508Z,16.80
2023-05-22T02:07:09.209Z,16.70
2023-05-22T02:09:39.926Z,16.70
2023-05-22T02:12:09.048Z,16.70
2023-05-22T02:14:38.259Z,16.70
2023-05-22T02:17:07.669Z,16.70
2023-05-22T02:19:37.151Z,16.70
2023-05-22T02:22:05.388Z,16.70
2023-05-22T02:24:33.574Z,16.60
2023-05-22T02:27:01.518Z,16.60
2023-05-22T02:29:29.444Z,16.60
2023-05-22T02:31:57.399Z,16.70
2023-05-22T02:34:26.779Z,16.50
2023-05-22T02:36:56.278Z,16.50
2023-05-22T02:39:24.176Z,16.50
2023-05-22T02:41:52.069Z,16.50
2023-05-22T02:44:19.999Z,16.40
2023-05-22T02:46:48.388Z,16.50
2023-05-22T02:49:16.426Z,16.40
2023-05-22T02:51:47.530Z,16.50
2023-05-22T02:54:17.686Z,16.50
2023-05-22T02:56:45.726Z,16.50
2023-05-22T02:59:13.700Z,16.50
2023-05-22T03:01:41.699Z,16.50
2023-05-22T03:04:09.665Z,16.50
2023-05-22T03:06:38.289Z,16.50
2023-05-22T03:09:06.327Z,16.50
2023-05-22T03:11:35.677Z,16.50
2023-05-22T03:14:03.757Z,16.40
2023-05-22T03:16:32.834Z,16.50
2023-05-22T03:19:09.808Z,16.40
2023-05-22T03:21:38.420Z,16.40
2023-05-22T03:24:07.064Z,16.40
2023-05-22T03:26:36.396Z,16.40
2023-05-22T03:29:04.502Z,16.40
2023-05-22T03:31:34.533Z,16.30
2023-05-22T03:34:03.055Z,16.30
2023-05-22T03:36:34.024Z,16.30
2023-05-22T03:39:02.066Z,16.20
2023-05-22T03:41:29.992Z,16.20
2023-05-22T03:43:59.837Z,16.20
2023-05-22T03:46:27.852Z,16.20
2023-05-22T03:48:55.829Z,16.20
2023-05-22T03:51:23.764Z,16.10
2023-05-22T03:53:51.686Z,16.10
2023-05-22T03:56:19.658Z,16.10
2023-05-22T03:58:47.570Z,16.20
2023-05-22T04:01:16.900Z,16.10
2023-05-22T04:03:45.176Z,16.10
2023-05-22T04:06:14.566Z,16.00
2023-05-22T04:08:42.541Z,16.10
2023-05-22T04:11:10.488Z,16.00
2023-05-22T04:13:38.466Z,16.00
2023-05-22T04:16:06.841Z,16.10
2023-05-22T04:18:36.126Z,16.00
2023-05-22T04:21:06.316Z,16.00
2023-05-22T04:23:34.212Z,16.10
2023-05-22T04:26:02.907Z,16.20
2023-05-22T04:28:31.197Z,16.10
2023-05-22T04:30:59.222Z,16.10
2023-05-22T04:33:28.900Z,16.10
2023-05-22T04:35:58.253Z,16.20
2023-05-22T04:38:27.071Z,16.20
2023-05-22T04:40:55.086Z,16.30
2023-05-22T04:43:26.743Z,16.20
2023-05-22T04:45:56.393Z,16.30
2023-05-22T04:48:24.308Z,16.40
2023-05-22T04:50:54.209Z,16.50
2023-05-22T04:53:23.630Z,16.50
2023-05-22T04:55:51.563Z,16.50
2023-05-22T04:58:19.621Z,16.60
2023-05-22T05:00:47.602Z,16.80
2023-05-22T05:03:15.740Z,16.70
2023-05-22T05:05:44.830Z,16.90
2023-05-22T05:08:12.960Z,16.90
2023-05-22T05:10:42.254Z,17.00
2023-05-22T05:13:10.436Z,17.00
2023-05-22T05:15:38.347Z,17.10
2023-05-22T05:18:06.365Z,17.10
2023-05-22T05:20:34.316Z,17.20
2023-05-22T05:23:02.226Z,17.30
2023-05-22T05:25:30.131Z,17.50
2023-05-22T05:27:59.395Z,17.60
2023-05-22T05:30:29.944Z,17.80
2023-05-22T05:32:57.966Z,17.90
2023-05-22T05:35:25.935Z,18.10
2023-05-22T05:37:53.828Z,18.20
2023-05-22T05:40:21.769Z,18.40
2023-05-22T05:42:49.681Z,18.40
2023-05-22T05:45:19.525Z,18.60
2023-05-22T05:47:47.462Z,18.60
2023-05-22T05:50:16.088Z,18.70
2023-05-22T05:52:44.060Z,18.70
2023-05-22T05:55:12.030Z,18.80
2023-05-22T05:57:40.526Z,18.90
2023-05-22T06:00:11.355Z,19.00
2023-05-22T06:02:41.744Z,19.10
2023-05-22T06:05:10.903Z,19.20
2023-05-22T06:07:39.683Z,19.20
2023-05-22T06:10:08.380Z,19.30
2023-05-22T06:12:36.332Z,19.50
2023-05-22T06:15:04.877Z,19.60
2023-05-22T06:17:32.845Z,19.70
2023-05-22T06:20:02.432Z,19.80
2023-05-22T06:22:30.411Z,19.90
2023-05-22T06:24:58.323Z,20.00
2023-05-22T06:27:27.395Z,20.10
2023-05-22T06:29:56.509Z,20.20
2023-05-22T06:32:24.668Z,20.20
2023-05-22T06:34:52.773Z,20.30
2023-05-22T06:37:22.112Z,20.40
2023-05-22T06:39:50.086Z,20.30
2023-05-22T06:42:18.047Z,20.40
2023-05-22T06:44:45.964Z,20.40
2023-05-22T06:47:13.969Z,20.40
2023-05-22T06:49:41.912Z,20.40
2023-05-22T06:52:10.048Z,20.40
2023-05-22T06:54:42.818Z,20.40
2023-05-22T06:57:10.803Z,20.30
2023-05-22T06:59:38.857Z,20.40
2023-05-22T07:02:07.063Z,20.50
2023-05-22T07:04:35.044Z,20.50
2023-05-22T07:07:03.003Z,20.50
2023-05-22T07:09:30.878Z,20.70
2023-05-22T07:12:00.155Z,20.70
2023-05-22T07:14:28.114Z,20.80
2023-05-22T07:16:56.210Z,20.70
2023-05-22T07:19:24.183Z,20.90
2023-05-22T07:21:52.172Z,20.90
2023-05-22T07:24:20.152Z,21.00
2023-05-22T07:26:48.434Z,21.00
2023-05-22T07:29:17.860Z,21.00
2023-05-22T07:31:45.794Z,21.00
2023-05-22T07:34:13.726Z,21.10
2023-05-22T07:36:41.906Z,21.20
2023-05-22T07:39:10.259Z,21.10
2023-05-22T07:41:38.151Z,21.20
2023-05-22T07:44:06.319Z,21.30
2023-05-22T07:46:37.734Z,21.30
2023-05-22T07:49:05.928Z,21.40
2023-05-22T07:51:34.032Z,21.50
2023-05-22T07:54:01.911Z,21.60
2023-05-22T07:56:30.669Z,21.90
2023-05-22T07:58:58.576Z,22.00
2023-05-22T08:01:26.726Z,21.90
2023-05-22T08:03:56.387Z,22.10
2023-05-22T08:06:24.589Z,22.10
2023-05-22T08:08:53.465Z,22.40
2023-05-22T08:11:21.454Z,22.40
2023-05-22T08:13:49.445Z,22.40
2023-05-22T08:16:17.366Z,22.30
2023-05-22T08:18:45.330Z,22.40
2023-05-22T08:21:14.622Z,22.70
2023-05-22T08:23:42.651Z,22.50
2023-05-22T08:26:10.617Z,22.50
2023-05-22T08:28:42.010Z,22.60
2023-05-22T08:31:09.952Z,22.70
2023-05-22T08:33:37.934Z,22.80
2023-05-22T08:36:06.507Z,23.10
2023-05-22T08:38:36.058Z,23.10
2023-05-22T08:41:04.001Z,23.20
2023-05-22T08:43:31.997Z,23.40
2023-05-22T08:46:04.071Z,23.60
2023-05-22T08:48:33.136Z,23.50
2023-05-22T08:51:05.753Z,23.60
2023-05-22T08:53:37.571Z,23.40
2023-05-22T08:56:08.466Z,23.40
2023-05-22T08:58:37.559Z,23.60
2023-05-22T09:01:07.101Z,23.70
2023-05-22T09:03:37.053Z,23.70
2023-05-22T09:06:10.371Z,23.90
2023-05-22T09:08:40.127Z,23.80
2023-05-22T09:11:08.090Z,23.90
2023-05-22T09:13:36.140Z,23.90
2023-05-22T09:16:14.019Z,23.60
2023-05-22T09:18:43.094Z,23.60
2023-05-22T09:21:28.278Z,23.40
2023-05-22T09:24:02.423Z,23.40
2023-05-22T09:26:30.525Z,23.50
2023-05-22T09:29:00.777Z,23.50
2023-05-22T09:31:30.201Z,23.70
2023-05-22T09:33:58.420Z,23.70
2023-05-22T09:36:32.307Z,23.70
2023-05-22T09:39:03.946Z,23.80
2023-05-22T09:41:36.293Z,23.80
2023-05-22T09:44:13.652Z,23.80
2023-05-22T09:46:42.932Z,23.90
2023-05-22T09:49:13.326Z,23.80
2023-05-22T09:51:44.478Z,23.80
2023-05-22T09:54:14.959Z,23.80
2023-05-22T09:56:45.307Z,23.90
2023-05-22T09:59:15.172Z,24.00
2023-05-22T10:01:45.713Z,24.20
2023-05-22T10:04:14.906Z,24.30
2023-05-22T10:06:47.886Z,24.50
2023-05-22T10:09:19.613Z,24.50
2023-05-22T10:11:48.371Z,24.70
2023-05-22T10:14:16.800Z,24.40
2023-05-22T10:16:45.287Z,24.30
2023-05-22T10:19:13.926Z,24.40
2023-05-22T10:21:43.011Z,24.60
2023-05-22T10:24:12.063Z,24.80
2023-05-22T10:26:43.574Z,24.90
2023-05-22T10:29:15.833Z,24.90
2023-05-22T10:31:52.901Z,24.90
2023-05-22T10:34:28.416Z,24.90
2023-05-22T10:37:17.033Z,25.00
2023-05-22T10:40:02.019Z,25.20
2023-05-22T10:42:32.592Z,25.30
2023-05-22T10:45:02.163Z,25.40
2023-05-22T10:47:30.276Z,25.50
2023-05-22T10:50:07.611Z,25.70
2023-05-22T10:52:35.758Z,25.80
2023-05-22T10:55:07.542Z,25.90
2023-05-22T10:57:38.948Z,25.90
2023-05-22T11:00:12.712Z,26.20
2023-05-22T11:02:43.274Z,26.20
2023-05-22T11:05:36.484Z,26.10
2023-05-22T11:08:47.438Z,26.00
2023-05-22T11:11:15.526Z,26.10
2023-05-22T11:13:44.909Z,26.10
2023-05-22T11:16:13.632Z,26.10
2023-05-22T11:18:41.597Z,26.10
2023-05-22T11:21:13.498Z,26.20
2023-05-22T11:23:41.867Z,26.30
2023-05-22T11:26:20.378Z,26.40
2023-05-22T11:28:53.301Z,26.90
2023-05-22T11:31:24.026Z,27.00
2023-05-22T11:33:52.043Z,26.80
2023-05-22T11:36:20.002Z,26.50
2023-05-22T11:38:48.017Z,26.40
2023-05-22T11:41:17.063Z,26.30
2023-05-22T11:43:45.137Z,26.10
2023-05-22T11:46:15.154Z,26.10
2023-05-22T11:48:43.709Z,26.30
2023-05-22T11:51:11.856Z,26.50
2023-05-22T11:53:39.884Z,26.70
2023-05-22T11:56:08.057Z,26.90
2023-05-22T11:58:36.233Z,27.10
2023-05-22T12:01:05.396Z,26.70
2023-05-22T12:03:34.804Z,26.60
2023-05-22T12:06:03.651Z,26.50
2023-05-22T12:08:32.083Z,26.50
2023-05-22T12:11:00.050Z,26.60
2023-05-22T12:13:29.395Z,26.80
2023-05-22T12:16:01.260Z,27.00
2023-05-22T12:18:35.993Z,26.80
2023-05-22T12:21:07.418Z,26.80
2023-05-22T12:23:35.411Z,26.50
2023-05-22T12:26:05.218Z,26.30
2023-05-22T12:28:33.871Z,26.40
2023-05-22T12:31:01.979Z,26.60
2023-05-22T12:33:30.993Z,26.50
2023-05-22T12:35:59.908Z,26.70
2023-05-22T12:38:34.041Z,26.70
2023-05-22T12:41:03.276Z,26.70
2023-05-22T12:43:31.303Z,26.80
2023-05-22T12:46:01.753Z,26.90
2023-05-22T12:48:30.615Z,26.90
2023-05-22T12:50:58.627Z,26.80
2023-05-22T12:53:26.575Z,26.90
2023-05-22T12:55:55.882Z,26.90
2023-05-22T12:58:23.778Z,27.20
2023-05-22T13:00:51.701Z,27.30
2023-05-22T13:03:20.073Z,27.40
2023-05-22T13:05:48.102Z,27.10
2023-05-22T13:08:16.178Z,27.40
2023-05-22T13:10:44.138Z,27.40
2023-05-22T13:13:13.955Z,27.40
2023-05-22T13:15:42.196Z,27.40
2023-05-22T13:18:11.862Z,27.30
2023-05-22T13:20:40.063Z,27.50
2023-05-22T13:23:08.457Z,27.60
2023-05-22T13:25:36.552Z,27.80
2023-05-22T13:28:04.790Z,27.70
2023-05-22T13:30:34.173Z,27.80
2023-05-22T13:33:02.135Z,28.00
2023-05-22T13:35:30.078Z,28.00
2023-05-22T13:37:57.961Z,27.80
2023-05-22T13:40:26.021Z,27.90
2023-05-22T13:42:54.109Z,28.00
2023-05-22T13:45:22.142Z,28.00
2023-05-22T13:47:51.488Z,28.20
2023-05-22T13:50:19.998Z,28.20
2023-05-22T13:52:47.976Z,28.20
2023-05-22T13:55:16.025Z,27.90
2023-05-22T13:57:43.971Z,27.80
2023-05-22T14:00:13.053Z,27.80
2023-05-22T14:02:41.086Z,27.60
2023-05-22T14:05:10.965Z,27.50
2023-05-22T14:07:38.914Z,27.60
2023-05-22T14:10:08.011Z,27.50
2023-05-22T14:12:36.090Z,27.40
2023-05-22T14:15:04.207Z,27.30
2023-05-22T14:17:32.148Z,27.10
2023-05-22T14:20:00.194Z,27.20
2023-05-22T14:22:29.580Z,27.10
2023-05-22T14:24:57.753Z,27.20
2023-05-22T14:27:25.823Z,27.30
2023-05-22T14:29:53.745Z,27.40
2023-05-22T14:32:21.704Z,27.60
2023-05-22T14:34:49.646Z,27.60
2023-05-22T14:37:18.906Z,27.50
2023-05-22T14:39:48.253Z,27.40
2023-05-22T14:42:16.175Z,27.60
2023-05-22T14:44:44.114Z,27.60
2023-05-22T14:47:12.062Z,27.60
2023-05-22T14:49:40.020Z,27.70
2023-05-22T14:52:08.027Z,27.30
2023-05-22T14:54:35.991Z,27.20
2023-05-22T14:57:05.544Z,27.20
2023-05-22T14:59:33.767Z,27.30
2023-05-22T15:02:01.820Z,27.40
2023-05-22T15:04:30.688Z,27.30
2023-05-22T15:06:58.720Z,27.50
2023-05-22T15:09:26.690Z,27.50
2023-05-22T15:11:55.733Z,27.40
2023-05-22T15:14:25.147Z,27.10
2023-05-22T15:16:53.087Z,26.90
2023-05-22T15:19:21.112Z,26.60
2023-05-22T15:21:49.111Z,26.50
2023-05-22T15:24:17.249Z,26.30
2023-05-22T15:26:45.560Z,26.10
2023-05-22T15:29:13.572Z,26.00
2023-05-22T15:31:42.910Z,25.80
2023-05-22T15:34:10.886Z,25.80
2023-05-22T15:36:40.189Z,25.80
2023-05-22T15:39:08.147Z,25.70
2023-05-22T15:41:36.076Z,25.60
2023-05-22T15:44:04.039Z,25.40
2023-05-22T15:46:32.039Z,25.20
2023-05-22T15:49:01.386Z,25.20
2023-05-22T15:51:30.928Z,25.10
2023-05-22T15:53:59.108Z,24.80
2023-05-22T15:56:27.041Z,24.70
2023-05-22T15:58:54.987Z,24.60
2023-05-22T16:01:22.978Z,24.40
2023-05-22T16:03:51.162Z,24.10
2023-05-22T16:06:22.868Z,24.10
2023-05-22T16:08:50.918Z,23.70
2023-05-22T16:11:18.892Z,23.70
2023-05-22T16:13:46.930Z,23.50
2023-05-22T16:16:16.236Z,23.10
2023-05-22T16:18:44.245Z,22.80
2023-05-22T16:21:12.191Z,22.50
2023-05-22T16:23:41.453Z,22.30
2023-05-22T16:26:09.500Z,22.20
2023-05-22T16:28:37.465Z,21.90
2023-05-22T16:31:06.862Z,21.60
2023-05-22T16:33:37.296Z,21.40
2023-05-22T16:36:05.703Z,21.30
2023-05-22T16:38:33.647Z,21.20
2023-05-22T16:41:02.955Z,21.10
2023-05-22T16:43:31.270Z,20.90
2023-05-22T16:45:59.405Z,20.80
2023-05-22T16:48:27.389Z,20.60
2023-05-22T16:50:55.347Z,20.60
2023-05-22T16:53:23.281Z,20.50
2023-05-22T16:55:51.251Z,20.60
2023-05-22T16:58:21.669Z,20.40
2023-05-22T17:00:49.710Z,20.40
2023-05-22T17:03:17.841Z,20.40
2023-05-22T17:05:47.323Z,20.30
2023-05-22T17:08:15.282Z,20.20
2023-05-22T17:10:43.188Z,20.20
2023-05-22T17:13:12.613Z,20.10
2023-05-22T17:15:42.072Z,19.90
2023-05-22T17:18:10.289Z,19.90
2023-05-22T17:20:38.257Z,19.90
2023-05-22T17:23:07.214Z,19.80
2023-05-22T17:25:35.162Z,19.80
2023-05-22T17:28:03.069Z,19.70
2023-05-22T17:30:30.973Z,19.70
2023-05-22T17:33:00.324Z,19.60
2023-05-22T17:35:28.248Z,19.50
2023-05-22T17:37:56.178Z,19.50
2023-05-22T17:40:29.545Z,19.40
2023-05-22T17:43:04.515Z,19.30
2023-05-22T17:45:32.571Z,19.20
2023-05-22T17:48:01.923Z,19.40
2023-05-22T17:50:29.865Z,19.90
2023-05-22T17:52:57.823Z,20.30
2023-05-22T17:55:25.750Z,20.80
2023-05-22T17:57:54.026Z,21.00
2023-05-22T18:00:22.091Z,21.30
2023-05-22T18:02:50.620Z,21.30
2023-05-22T18:05:20.117Z,21.00
2023-05-22T18:07:48.057Z,20.70
2023-05-22T18:10:16.216Z,20.50
2023-05-22T18:12:44.143Z,20.30
2023-05-22T18:15:12.890Z,20.30
2023-05-22T18:17:41.118Z,20.10
2023-05-22T18:20:11.804Z,19.90
2023-05-22T18:22:41.471Z,19.60
2023-05-22T18:25:10.669Z,19.50
2023-05-22T18:27:38.695Z,19.40
2023-05-22T18:30:07.912Z,19.40
2023-05-22T18:32:36.768Z,19.10
2023-05-22T18:35:05.314Z,19.10
2023-05-22T18:37:33.340Z,19.20
2023-05-22T18:40:06.378Z,19.10
2023-05-22T18:42:34.336Z,19.00
2023-05-22T18:45:02.245Z,18.90
2023-05-22T18:47:30.247Z,18.90
2023-05-22T18:49:58.206Z,18.90
2023-05-22T18:52:26.209Z,18.80
2023-05-22T18:54:54.171Z,18.60
2023-05-22T18:57:23.604Z,18.70
2023-05-22T18:59:51.585Z,18.60
2023-05-22T19:02:21.764Z,18.40
2023-05-22T19:04:51.154Z,18.40
2023-05-22T19:07:21.024Z,18.30
2023-05-22T19:09:49.585Z,18.20
2023-05-22T19:12:17.607Z,18.20
2023-05-22T19:14:48.157Z,18.10
2023-05-22T19:17:16.381Z,17.80
2023-05-22T19:19:44.428Z,17.80
2023-05-22T19:22:12.406Z,17.70
2023-05-22T19:24:40.422Z,17.60
2023-05-22T19:27:08.405Z,17.70
2023-05-22T19:29:36.433Z,17.60
2023-05-22T19:32:06.143Z,17.50
2023-05-22T19:34:34.424Z,17.50
2023-05-22T19:37:02.379Z,17.40
2023-05-22T19:39:30.385Z,17.30
2023-05-22T19:41:58.350Z,17.20
2023-05-22T19:44:26.339Z,17.10
2023-05-22T19:46:54.371Z,17.10
2023-05-22T19:49:23.669Z,17.10
2023-05-22T19:51:52.496Z,17.00
2023-05-22T19:54:21.474Z,17.00
2023-05-22T19:56:49.444Z,17.00
2023-05-22T19:59:17.408Z,16.80
2023-05-22T20:01:45.409Z,16.60
2023-05-22T20:04:13.432Z,16.60
2023-05-22T20:06:45.095Z,16.60
2023-05-22T20:09:13.116Z,16.60
2023-05-22T20:11:41.189Z,16.60
2023-05-22T20:14:09.174Z,16.50
2023-05-22T20:16:37.168Z,16.40
2023-05-22T20:19:05.228Z,16.30
2023-05-22T20:21:33.276Z,16.40
2023-05-22T20:24:05.789Z,16.30
2023-05-22T20:26:33.729Z,16.30
2023-05-22T20:29:01.696Z,16.30
2023-05-22T20:31:29.705Z,16.10
2023-05-22T20:33:59.094Z,16.00
2023-05-22T20:36:27.191Z,16.00
2023-05-22T20:38:55.230Z,15.90
2023-05-22T20:41:24.548Z,15.90
2023-05-22T20:43:54.396Z,15.80
2023-05-22T20:46:24.128Z,15.70
2023-05-22T20:48:52.252Z,15.70
2023-05-22T20:51:20.460Z,15.70
2023-05-22T20:53:48.534Z,15.70
2023-05-22T20:56:16.507Z,15.60
2023-05-22T20:58:45.865Z,15.60
2023-05-22T21:01:13.952Z,15.70
2023-05-22T21:03:41.904Z,15.60
2023-05-22T21:06:10.061Z,15.60
2023-05-22T21:08:38.008Z,15.50
2023-05-22T21:11:06.859Z,15.60
2023-05-22T21:13:34.831Z,15.60
2023-05-22T21:16:04.119Z,15.60
2023-05-22T21:18:32.025Z,15.60
2023-05-22T21:20:59.984Z,15.40
2023-05-22T21:23:27.991Z,15.40
2023-05-22T21:25:55.926Z,15.40
2023-05-22T21:28:25.103Z,15.50
2023-05-22T21:30:53.047Z,15.40
2023-05-22T21:33:22.407Z,15.40
2023-05-22T21:35:50.469Z,15.40
2023-05-22T21:38:18.417Z,15.40
2023-05-22T21:40:46.329Z,15.30
2023-05-22T21:43:14.286Z,15.30
2023-05-22T21:45:42.269Z,15.40
2023-05-22T21:48:10.255Z,15.40
2023-05-22T21:50:39.916Z,15.30
2023-05-22T21:53:08.050Z,15.40
2023-05-22T21:55:36.156Z,15.30
2023-05-22T21:58:04.158Z,15.40
2023-05-22T22:00:32.178Z,15.40
2023-05-22T22:03:00.218Z,15.60
2023-05-22T22:05:28.476Z,15.70
2023-05-22T22:07:57.803Z,15.80
2023-05-22T22:10:25.766Z,15.90
2023-05-22T22:12:53.824Z,16.00
2023-05-22T22:15:22.613Z,16.00
2023-05-22T22:17:52.211Z,16.00
2023-05-22T22:20:30.342Z,16.10
2023-05-22T22:23:09.116Z,16.00
2023-05-22T22:25:38.893Z,16.00
2023-05-22T22:28:07.185Z,16.00
2023-05-22T22:30:35.548Z,16.00
2023-05-22T22:33:03.624Z,16.00
2023-05-22T22:35:31.629Z,15.80
2023-05-22T22:37:59.809Z,15.90
2023-05-22T22:40:29.318Z,15.90
2023-05-22T22:42:57.310Z,15.90
2023-05-22T22:45:25.597Z,15.80
2023-05-22T22:47:56.309Z,15.80
2023-05-22T22:50:25.322Z,15.70
2023-05-22T22:52:53.299Z,15.60
2023-05-22T22:55:21.457Z,15.60
2023-05-22T22:57:51.618Z,15.70
2023-05-22T23:00:20.171Z,15.70
2023-05-22T23:02:48.291Z,15.60
2023-05-22T23:05:20.006Z,15.60
2023-05-22T23:07:48.643Z,15.60
2023-05-22T23:10:17.166Z,15.60
2023-05-22T23:12:45.226Z,15.40
2023-05-22T23:15:15.768Z,15.50
2023-05-22T23:17:43.734Z,15.40
2023-05-22T23:20:12.495Z,15.20
2023-05-22T23:22:40.417Z,15.30
2023-05-22T23:25:09.051Z,15.40
2023-05-22T23:27:37.341Z,15.20
2023-05-22T23:30:06.189Z,15.30
2023-05-22T23:32:35.528Z,15.20
2023-05-22T23:35:03.693Z,15.30
2023-05-22T23:37:31.640Z,15.20
2023-05-22T23:39:59.569Z,15.30
2023-05-22T23:42:27.465Z,15.20
2023-05-22T23:44:55.469Z,15.20
2023-05-22T23:47:23.436Z,15.20
2023-05-22T23:49:55.232Z,15.30
2023-05-22T23:52:23.239Z,15.30
2023-05-22T23:54:51.208Z,15.30
2023-05-22T23:57:19.114Z,15.20
2023-05-22T23:59:47.036Z,15.10
